Latest Weather Observations for Moss Vale

IDN60801

Issued at 1:03 am EST Sunday 20 August 2017 (issued every 30 minutes, with the page automatically refreshed every 10 minutes)

About weather observations | Map of weather stations | Latest weather observations for NSW | Other Formats
Station Details ID: 068239 Name: MOSS VALE AWS Lat: -34.53 Lon: 150.42 Height: 678.4 m
Data from the previous 72 hours. | See also: Recent months at Moss Vale
Date/Time
EST
Temp
°C
App
Temp
°C
Dew
Point
°C
Rel
Hum
%
Delta-T
°C
Wind Press
QNH
hPa
Press
MSL
hPa
Rain since
9am
mm
Dir  Spd
km/h
Gust
km/h
Spd
kts
Gust
kts
20/01:00am 1.6 -4.8 -5.1 61 2.3 SW 20 26 11 14 1021.7 1022.2 0.0
20/12:30am 1.9 -4.5 -5.2 59 2.5 SW 20 28 11 15 1021.7 1022.2 0.0
20/12:00am 1.8 -5.0 -5.1 60 2.4 SSW 22 30 12 16 1021.7 1022.2 0.0
 
Date/Time
EST
Temp
°C
App
Temp
°C
Dew
Point
°C
Rel
Hum
%
Delta-T
°C
Wind Press
QNH
hPa
Press
MSL
hPa
Rain since
9am
mm
Dir  Spd
km/h
Gust
km/h
Spd
kts
Gust
kts
19/11:30pm 2.0 -4.4 -4.7 61 2.4 SSW 20 24 11 13 1021.6 1022.1 0.0
19/11:00pm 2.4 -4.0 -5.0 58 2.6 SW 20 32 11 17 1021.7 1022.2 0.0
19/10:30pm 2.9 -3.5 -5.2 55 2.7 SW 20 26 11 14 1021.9 1022.4 0.0
19/10:00pm 2.6 -3.3 -5.3 56 2.8 SW 17 24 9 13 1021.9 1022.4 0.0
19/09:30pm 2.8 -2.6 -4.4 59 2.5 SW 15 20 8 11 1021.9 1022.4 0.0
19/09:00pm 3.1 -2.0 -2.2 68 1.9 SW 15 20 8 11 1021.8 1022.3 0.0
19/08:30pm 3.1 -0.9 0.3 82 1.1 SW 11 17 6 9 1021.7 1022.2 0.0
19/08:00pm 3.7 0.1 0.6 80 1.2 SSW 9 13 5 7 1021.3 1021.7 0.0
19/07:30pm 4.2 -0.9 0.7 78 1.4 S 17 22 9 12 1021.1 1021.5 0.0
19/07:00pm 4.6 -0.5 0.7 76 1.6 S 17 22 9 12 1020.7 1021.2 0.0
19/06:30pm 4.9 -0.2 0.9 75 1.6 S 17 24 9 13 1020.5 1021.0 0.0
19/06:00pm 5.3 0.2 0.7 72 1.9 S 17 24 9 13 1020.1 1020.6 0.0
19/05:30pm 6.6 1.3 -0.8 59 2.9 SSE 17 22 9 12 1019.7 1020.1 0.0
19/05:00pm 8.0 1.8 -2.9 46 4.2 SSW 20 30 11 16 1019.1 1019.6 0.0
19/04:30pm 8.4 2.2 -2.8 45 4.3 S 20 33 11 18 1018.6 1019.0 0.0
19/04:00pm 8.4 1.5 -2.8 45 4.3 SSW 24 33 13 18 1018.3 1018.7 0.0
19/03:30pm 8.9 1.5 -3.6 41 4.8 SSW 26 33 14 18 1018.2 1018.6 0.0
19/03:00pm 8.2 1.9 -3.6 43 4.4 SSW 20 24 11 13 1018.0 1018.4 0.0
19/02:30pm 8.3 1.3 -3.5 43 4.5 SSW 24 35 13 19 1017.7 1018.2 0.0
19/02:00pm 8.6 1.2 -3.9 41 4.7 SW 26 37 14 20 1017.5 1018.0 0.0
19/01:30pm 7.9 1.2 -3.9 43 4.4 SSW 22 33 12 18 1017.4 1017.8 0.0
19/01:00pm 9.1 0.9 -4.1 39 5.0 SSW 30 41 16 22 1017.4 1017.8 0.0
19/12:30pm 8.8 0.6 -4.4 39 4.9 SSW 30 43 16 23 1017.2 1017.6 0.0
19/12:00pm 7.7 -1.3 -6.0 37 4.8 SSW 33 44 18 24 1017.3 1017.7 0.0
19/11:30am 8.3 -0.3 -4.2 41 4.7 SW 32 46 17 25 1017.4 1017.8 0.0
19/11:00am 6.7 -2.0 -5.3 42 4.3 SSW 32 44 17 24 1017.6 1018.1 0.0
19/10:30am 5.8 -3.5 -5.5 44 4.0 SW 35 46 19 25 1017.5 1018.0 0.0
19/10:00am 5.8 -3.9 -5.8 43 4.0 SW 37 50 20 27 1017.4 1017.8 0.0
19/09:39am 5.8 -2.0 -3.5 51 3.4 SW 28 46 15 25 1017.3 1017.7 0.0
19/09:30am 5.2 -3.4 -4.4 50 3.4 SW 32 46 17 25 1017.1 1017.5 0.0
19/09:25am 5.3 -3.4 -3.5 53 3.2 SW 33 52 18 28 1017.1 1017.5 0.0
19/09:00am 4.9 -3.5 -2.7 58 2.8 SW 32 43 17 23 1016.9 1017.3 0.0
19/08:30am 3.7 -4.9 -2.3 65 2.2 SW 33 46 18 25 1016.5 1016.9 0.0
19/08:01am 3.2 -4.8 -2.3 67 2.0 SW 30 48 16 26 1016.3 1016.7 0.0
19/08:00am 3.2 -5.2 -2.1 68 2.0 SW 32 48 17 26 1016.3 1016.7 0.0
19/07:57am 3.0 -5.0 -2.7 66 2.1 SW 30 48 16 26 1016.1 1016.5 0.0
19/07:30am 2.5 -5.1 -2.4 70 1.8 SW 28 37 15 20 1015.8 1016.2 0.0
19/07:00am 2.1 -4.4 -2.2 73 1.6 SW 22 32 12 17 1015.7 1016.1 0.0
19/06:30am 1.8 -5.4 -2.3 74 1.5 SW 26 35 14 19 1015.2 1015.6 0.0
19/06:00am 2.0 -4.8 -2.1 74 1.5 SW 24 33 13 18 1014.6 1015.0 0.0
19/05:30am 2.1 -5.1 -2.4 72 1.6 SW 26 35 14 19 1014.2 1014.6 0.0
19/05:00am 2.5 -4.4 -2.6 69 1.8 SW 24 35 13 19 1014.1 1014.5 0.0
19/04:30am 2.4 -3.5 -2.3 71 1.7 SW 19 28 10 15 1013.8 1014.2 0.0
19/04:00am 2.6 -3.9 -2.1 71 1.7 SW 22 32 12 17 1013.4 1013.7 0.0
19/03:30am 2.9 -4.7 -2.2 69 1.9 SW 28 43 15 23 1013.2 1013.5 0.0
19/03:04am 2.9 -5.7 -2.2 69 1.9 SW 33 54 18 29 1012.5 1012.9 0.0
19/03:00am 2.9 -5.5 -2.2 69 1.9 SW 32 46 17 25 1012.5 1012.9 0.0
19/02:30am 3.0 -4.3 -2.5 67 2.0 SW 26 41 14 22 1012.7 1013.1 0.0
19/02:01am 3.2 -4.4 -2.5 66 2.1 SW 28 46 15 25 1012.7 1013.1 0.0
19/02:00am 3.2 -4.8 -2.5 66 2.1 SW 30 46 16 25 1012.7 1013.1 0.0
19/01:57am 3.3 -4.3 -2.2 67 2.0 SW 28 46 15 25 1012.6 1013.0 0.0
19/01:30am 3.2 -4.0 -2.3 67 2.0 SW 26 35 14 19 1012.5 1012.9 0.0
19/01:00am 3.4 -3.8 -1.9 68 2.0 SW 26 37 14 20 1012.6 1013.0 0.0
19/12:30am 3.5 -4.8 -2.0 67 2.0 SW 32 44 17 24 1012.6 1013.0 0.0
19/12:14am 3.5 -4.1 -2.0 67 2.0 SSW 28 46 15 25 1012.5 1012.9 0.0
19/12:00am 3.6 -3.6 -1.9 67 2.1 SW 26 35 14 19 1012.4 1012.7 0.0
 
Date/Time
EST
Temp
°C
App
Temp
°C
Dew
Point
°C
Rel
Hum
%
Delta-T
°C
Wind Press
QNH
hPa
Press
MSL
hPa
Rain since
9am
mm
Dir  Spd
km/h
Gust
km/h
Spd
kts
Gust
kts
18/11:36pm 3.8 -4.4 -1.2 70 1.9 SW 32 50 17 27 1012.3 1012.6 0.0
18/11:30pm 3.7 -4.6 -1.4 69 1.9 SW 32 48 17 26 1012.3 1012.6 0.0
18/11:18pm 4.0 -4.4 -1.2 69 2.0 SW 33 52 18 28 1012.2 1012.5 0.0
18/11:00pm 4.1 -4.3 -1.1 69 2.0 SSW 33 46 18 25 1012.4 1012.7 0.0
18/10:30pm 4.6 -4.6 -1.0 67 2.2 SW 37 52 20 28 1012.3 1012.6 0.0
18/10:00pm 4.7 -4.1 -1.1 66 2.2 SW 35 57 19 31 1012.2 1012.5 0.0
18/09:30pm 4.9 -3.3 -0.9 66 2.3 SW 32 50 17 27 1012.4 1012.7 0.0
18/09:16pm 5.0 -3.2 -1.0 65 2.3 SW 32 52 17 28 1012.3 1012.6 0.0
18/09:00pm 4.9 -2.2 -0.9 66 2.3 SW 26 43 14 23 1012.3 1012.6 0.0
18/08:49pm 5.1 -2.3 -0.9 65 2.3 SW 28 50 15 27 1012.2 1012.5 0.0
18/08:30pm 4.9 -1.7 -0.7 67 2.2 SW 24 43 13 23 1012.0 1012.3 0.0
18/08:00pm 4.9 -5.0 -0.7 67 2.2 SW 41 63 22 34 1011.1 1011.4 0.0
18/07:30pm 5.3 -5.6 -0.9 64 2.4 SW 46 70 25 38 1010.2 1010.5 0.0
18/07:00pm 5.5 -4.3 -0.5 65 2.4 SW 41 63 22 34 1010.2 1010.5 0.0
18/06:31pm 5.8 -4.6 -0.7 63 2.6 SW 44 70 24 38 1009.7 1010.0 0.0
18/06:30pm 5.8 -4.6 -0.7 63 2.6 SW 44 61 24 33 1009.8 1010.1 0.0
18/06:00pm 6.3 -3.4 -2.3 54 3.3 SW 39 59 21 32 1010.0 1010.2 0.0
18/05:30pm 6.6 -4.1 -2.8 51 3.6 SW 44 70 24 38 1009.5 1009.8 0.0
18/05:00pm 7.1 -3.6 -2.6 50 3.7 SW 44 65 24 35 1008.5 1008.7 0.0
18/04:30pm 7.2 -4.6 -2.5 50 3.7 SW 50 74 27 40 1008.3 1008.6 0.0
18/04:00pm 7.6 -4.6 -2.4 49 3.9 SW 52 76 28 41 1007.5 1007.8 0.0
18/03:30pm 8.4 -3.4 -2.5 46 4.2 SW 50 80 27 43 1007.5 1007.8 0.0
18/03:08pm 8.2 -4.8 -3.0 45 4.3 SW 56 78 30 42 1007.3 1007.5 0.0
18/03:00pm 8.6 -4.4 -2.6 45 4.4 SW 56 72 30 39 1007.2 1007.4 0.0
18/02:32pm 8.9 -3.0 -3.3 42 4.7 SW 50 72 27 39 1006.7 1007.0 0.0
18/02:30pm 8.7 -2.8 -3.2 43 4.6 SW 48 63 26 34 1007.0 1007.2 0.0
18/02:00pm 8.5 -4.2 -3.3 43 4.5 SW 54 83 29 45 1006.9 1007.1 0.0
18/01:30pm 8.9 -4.1 -3.0 43 4.6 SW 56 82 30 44 1006.6 1006.9 0.0
18/01:01pm 8.1 -3.9 -3.7 43 4.4 SW 50 74 27 40 1006.7 1007.0 0.0
18/01:00pm 8.3 -3.6 -2.9 45 4.3 SW 50 67 27 36 1006.7 1007.0 0.0
18/12:30pm 7.6 -5.4 -3.0 47 4.0 SW 56 76 30 41 1006.7 1007.0 0.0
18/12:00pm 8.7 -3.1 -2.0 47 4.2 SW 50 69 27 37 1007.1 1007.3 0.0
18/11:30am 8.2 -3.5 -1.6 50 3.9 SW 50 74 27 40 1007.4 1007.6 0.0
18/11:00am 7.8 -4.0 -2.0 50 3.8 SW 50 78 27 42 1007.5 1007.8 0.0
18/10:30am 7.6 -3.4 -2.1 50 3.8 SW 46 70 25 38 1007.2 1007.4 0.0
18/10:00am 7.0 -3.6 -1.7 54 3.4 SW 44 70 24 38 1007.4 1007.6 0.0
18/09:30am 6.4 -3.9 -0.8 60 2.9 SW 43 63 23 34 1007.7 1008.0 0.0
18/09:00am 6.2 -3.3 -0.5 62 2.7 SW 39 57 21 31 1008.2 1008.5 0.6
18/08:30am 5.5 -5.0 -1.4 61 2.7 SW 44 65 24 35 1008.1 1008.4 0.6
18/08:07am 5.4 -3.3 -0.8 64 2.4 SW 35 56 19 30 1008.2 1008.5 0.6
18/08:00am 5.4 -3.4 -1.1 63 2.5 SW 35 52 19 28 1008.1 1008.4 0.6
18/07:30am 5.0 -3.4 -1.0 65 2.3 SW 33 46 18 25 1007.8 1008.1 0.6
18/07:00am 5.0 -4.1 -0.8 66 2.3 SW 37 59 20 32 1007.1 1007.3 0.6
18/06:33am 4.8 -3.9 -0.6 68 2.1 SW 35 57 19 31 1006.9 1007.1 0.6
18/06:30am 4.6 -4.1 -0.4 70 2.0 SW 35 50 19 27 1007.1 1007.3 0.6
18/06:04am 4.5 -4.1 -0.1 72 1.8 SW 35 54 19 29 1006.7 1007.0 0.6
18/06:00am 4.6 -4.8 0.0 72 1.8 SW 39 54 21 29 1006.6 1006.9 0.6
18/05:37am 4.9 -4.1 0.1 71 1.9 SW 37 61 20 33 1006.7 1007.0 0.6
18/05:30am 5.1 -3.5 0.1 70 2.0 SW 35 52 19 28 1006.9 1007.1 0.6
18/05:17am 5.0 -3.0 0.2 71 1.9 SW 32 54 17 29 1006.7 1007.0 0.6
18/05:00am 4.7 -3.3 0.1 72 1.8 SW 32 44 17 24 1006.6 1006.9 0.6
18/04:30am 5.1 -3.5 0.3 71 1.9 SW 35 54 19 29 1006.7 1007.0 0.6
18/04:02am 5.1 -3.1 0.5 72 1.9 SW 33 52 18 28 1006.6 1006.9 0.6
18/04:00am 5.2 -3.4 0.4 71 1.9 SW 35 52 19 28 1006.7 1007.0 0.6
18/03:30am 5.6 -3.6 1.0 72 1.9 SW 39 59 21 32 1006.4 1006.7 0.6
18/03:03am 6.2 -2.7 0.9 69 2.2 SW 37 61 20 33 1006.4 1006.7 0.4
18/03:00am 6.1 -2.4 1.1 70 2.1 SW 35 50 19 27 1006.5 1006.8 0.4
18/02:53am 6.0 -1.9 1.3 72 2.0 SW 32 50 17 27 1006.6 1006.9 0.4
18/02:30am 6.0 -1.8 1.7 74 1.8 SW 32 43 17 23 1006.9 1007.1 0.4
18/02:00am 5.2 -1.0 2.0 80 1.3 SW 24 39 13 21 1007.2 1007.4 0.4
18/01:37am 5.3 -1.7 2.1 80 1.3 SW 28 39 15 21 1007.7 1008.0 0.4
18/01:30am 5.5 -1.8 2.2 79 1.4 SW 30 57 16 31 1007.8 1008.1 0.4
18/01:25am 5.7 -2.0 2.5 80 1.4 SW 32 57 17 31 1008.0 1008.3 0.4
18/01:20am 5.9 -1.0 2.5 79 1.5 SW 28 46 15 25 1008.2 1008.5 0.4
18/01:00am 5.8 -1.2 2.1 77 1.6 SW 28 37 15 20 1007.9 1008.2 0.4
18/12:54am 5.7 -1.3 2.0 77 1.6 SW 28 39 15 21 1007.8 1008.1 0.4
18/12:33am 6.7 -4.5 1.8 71 2.1 SW 50 76 27 41 1008.0 1008.3 0.2
18/12:31am 7.6 -3.3 1.2 64 2.7 SW 48 76 26 41 1007.6 1007.9 0.0
18/12:30am 8.1 -2.5 1.0 61 3.0 WSW 46 69 25 37 1007.5 1007.8 0.0
18/12:25am 9.3 -1.5 -0.3 51 4.0 WSW 46 69 25 37 1007.0 1007.2 0.0
18/12:00am 9.5 0.7 -1.5 46 4.4 SSW 35 54 19 29 1006.9 1007.1 0.0
 
Date/Time
EST
Temp
°C
App
Temp
°C
Dew
Point
°C
Rel
Hum
%
Delta-T
°C
Wind Press
QNH
hPa
Press
MSL
hPa
Rain since
9am
mm
Dir  Spd
km/h
Gust
km/h
Spd
kts
Gust
kts
17/11:38pm 10.5 1.5 -2.5 40 5.2 SW 35 54 19 29 1007.1 1007.3 0.0
17/11:30pm 10.4 2.3 -2.9 39 5.2 SSW 30 46 16 25 1007.1 1007.3 0.0
17/11:01pm 10.0 2.2 -3.6 38 5.2 WSW 28 46 15 25 1007.1 1007.3 0.0
17/11:00pm 10.0 2.2 -3.6 38 5.3 WSW 28 43 15 23 1007.1 1007.3 0.0
17/10:33pm 10.4 0.2 -3.3 38 5.3 SW 41 59 22 32 1007.5 1007.8 0.0
17/10:30pm 10.7 0.1 -3.4 37 5.5 WSW 43 59 23 32 1007.2 1007.4 0.0
17/10:00pm 11.4 1.7 -5.5 30 6.4 WSW 37 59 20 32 1007.4 1007.6 0.0
17/09:30pm 11.6 1.8 -6.3 28 6.6 W 37 57 20 31 1007.4 1007.6 0.0
17/09:00pm 11.6 2.3 -5.4 30 6.4 WSW 35 57 19 31 1007.4 1007.6 0.0
17/08:36pm 11.4 3.2 -3.9 34 5.9 WSW 30 48 16 26 1007.4 1007.6 0.0
17/08:30pm 11.1 3.3 -3.4 36 5.7 WSW 28 37 15 20 1007.4 1007.6 0.0
17/08:00pm 11.1 3.5 -2.0 40 5.3 W 28 39 15 21 1007.4 1007.6 0.0
17/07:30pm 10.9 3.3 -1.8 41 5.2 W 28 44 15 24 1007.4 1007.6 0.0
17/07:18pm 11.2 3.6 -1.9 40 5.3 W 28 50 15 27 1007.1 1007.3 0.0
17/07:00pm 11.0 3.5 -1.7 41 5.2 WNW 28 41 15 22 1007.1 1007.3 0.0
17/06:38pm 11.2 3.6 -1.9 40 5.3 W 28 46 15 25 1007.0 1007.2 0.0
17/06:30pm 10.9 3.3 -1.8 41 5.2 W 28 44 15 24 1007.0 1007.2 0.0
17/06:19pm 11.0 3.0 -2.1 40 5.3 W 30 48 16 26 1006.7 1007.0 0.0
17/06:00pm 10.8 3.3 -1.6 42 5.1 W 28 43 15 23 1006.6 1006.9 0.0
17/05:30pm 11.1 2.3 -1.3 42 5.1 WSW 35 56 19 30 1006.3 1006.6 0.0
17/05:00pm 11.8 3.3 -2.0 38 5.7 WSW 33 54 18 29 1006.0 1006.2 0.0
17/04:55pm 11.9 3.3 -2.3 37 5.8 W 33 54 18 29 1005.9 1006.1 0.0
17/04:51pm 12.1 2.8 -2.1 37 5.8 WSW 37 70 20 38 1006.0 1006.2 0.0
17/04:30pm 12.0 2.3 -1.9 38 5.7 WSW 39 57 21 31 1005.9 1006.1 0.0
17/04:00pm 12.4 2.7 -1.9 37 5.9 WSW 39 57 21 31 1005.6 1005.8 0.0
17/03:30pm 12.9 1.5 -2.2 35 6.2 SW 48 74 26 40 1005.1 1005.4 0.0
17/03:00pm 13.2 2.4 -3.1 32 6.6 WSW 44 76 24 41 1005.1 1005.4 0.0
17/02:30pm 13.7 3.0 -2.3 33 6.6 WSW 44 63 24 34 1005.4 1005.6 0.0
17/02:00pm 13.3 1.9 -1.8 35 6.3 SW 48 67 26 36 1005.3 1005.5 0.0
17/01:36pm 13.2 2.7 -0.8 38 5.9 SW 44 65 24 35 1005.4 1005.6 0.0
17/01:30pm 13.3 2.8 -1.4 36 6.2 SW 44 61 24 33 1005.7 1005.9 0.0
17/01:00pm 13.7 2.6 -0.3 38 6.1 WSW 48 78 26 42 1006.0 1006.2 0.0
17/12:30pm 13.3 2.8 -1.1 37 6.1 SW 44 67 24 36 1006.1 1006.3 0.0
17/12:00pm 12.8 2.9 -1.1 38 5.9 SW 41 70 22 38 1006.5 1006.8 0.0
17/11:30am 12.8 2.4 -0.1 41 5.5 WSW 44 67 24 36 1006.9 1007.1 0.0
17/11:00am 12.7 3.4 0.8 44 5.2 SW 39 63 21 34 1007.4 1007.6 0.0
17/10:30am 11.9 1.7 0.7 46 4.9 SW 44 72 24 39 1007.4 1007.6 0.0
17/10:00am 11.8 1.7 0.6 46 4.9 SW 43 65 23 35 1007.7 1008.0 0.0
17/09:30am 11.3 1.5 0.1 46 4.8 SW 41 61 22 33 1007.8 1008.1 0.0
17/09:05am 10.7 2.1 -0.1 47 4.5 WSW 35 54 19 29 1007.9 1008.2 0.0
17/09:00am 10.7 2.5 0.4 49 4.4 WSW 33 50 18 27 1008.0 1008.3 0.4
17/08:35am 10.0 2.0 0.1 50 4.2 SW 32 50 17 27 1008.0 1008.3 0.4
17/08:30am 9.8 1.6 0.2 51 4.0 SW 33 48 18 26 1008.1 1008.4 0.4
17/08:08am 9.1 1.1 0.3 54 3.7 WSW 32 50 17 27 1007.9 1008.2 0.4
17/08:00am 8.9 0.7 0.4 55 3.6 WSW 33 48 18 26 1007.9 1008.2 0.4
17/07:30am 8.3 0.1 0.3 57 3.3 WSW 33 46 18 25 1007.8 1008.1 0.4
17/07:05am 7.8 -0.2 0.1 58 3.2 WSW 32 50 17 27 1007.4 1007.6 0.4
17/07:00am 7.7 -0.4 0.0 58 3.2 SW 32 43 17 23 1007.4 1007.6 0.4
17/06:30am 7.6 -0.6 0.1 59 3.1 SW 33 46 18 25 1007.2 1007.4 0.4
17/06:00am 7.6 -1.0 0.1 59 3.1 SW 35 48 19 26 1006.9 1007.1 0.4
17/05:30am 7.6 -0.9 0.6 61 2.9 SW 35 54 19 29 1006.9 1007.1 0.4
17/05:22am 7.7 -0.8 0.7 61 2.9 SW 35 54 19 29 1006.6 1006.9 0.4
17/05:00am 7.6 -0.6 0.6 61 2.9 SW 33 46 18 25 1006.6 1006.9 0.4
17/04:53am 7.6 -0.6 0.3 60 3.0 SW 33 52 18 28 1006.7 1007.0 0.4
17/04:30am 7.6 -0.6 0.6 61 2.9 SW 33 48 18 26 1006.6 1006.9 0.4
17/04:00am 7.7 -2.0 0.7 61 2.9 SW 41 56 22 30 1006.5 1006.8 0.4
17/03:45am 7.7 -1.2 0.7 61 2.9 SW 37 56 20 30 1006.5 1006.8 0.4
17/03:30am 7.6 -0.9 0.6 61 2.9 SW 35 48 19 26 1006.6 1006.9 0.4
17/03:05am 7.9 -1.4 0.6 60 3.0 SW 39 57 21 31 1006.7 1007.0 0.4
17/03:00am 7.9 -1.8 0.6 60 3.1 SW 41 57 22 31 1006.6 1006.9 0.4
17/02:30am 8.1 -0.8 0.6 59 3.1 SW 37 50 20 27 1006.9 1007.1 0.4
17/02:01am 8.4 -0.9 0.4 57 3.3 SW 39 57 21 31 1007.1 1007.3 0.4
17/02:00am 8.3 -0.6 0.5 58 3.3 SW 37 54 20 29 1007.2 1007.4 0.4
17/01:33am 8.4 -0.9 0.9 59 3.2 SW 39 57 21 31 1007.3 1007.5 0.4
17/01:30am 8.5 -1.1 1.0 59 3.2 SW 41 57 22 31 1007.3 1007.5 0.4

Other Formats:

Comma delimited format used in spreadsheet applications
http://www.bom.gov.au/fwo/IDN60801/IDN60801.94746.axf

JavaScript Object Notation format (JSON) in row-major order
http://www.bom.gov.au/fwo/IDN60801/IDN60801.94746.json